Time;durP1;ratioP1;P1;durP2;ratioP2;P2;SDS_P1;SDS_P2;PMS_P1;PMS_P2;Temp;Humidity;BMP_temperature;BMP_pressure;BME280_temperature;BME280_humidity;BME280_pressure;Samples;Min_cycle;Max_cycle;Signal;HPM_P1;HPM_P2
2020/12/12 00:00:41;;;;;;;117.55;37.42;;;1.30;99.90;;;;;;4925244;29;20110;-69
2020/12/12 00:03:07;;;;;;;107.32;34.63;;;1.40;99.90;;;;;;4925164;29;20093;-69
2020/12/12 00:05:33;;;;;;;114.63;37.78;;;1.30;99.90;;;;;;4924419;29;20427;-69
2020/12/12 00:07:58;;;;;;;115.35;35.70;;;1.30;99.90;;;;;;4925475;29;20059;-69
2020/12/12 00:10:26;;;;;;;124.25;37.55;;;1.30;99.90;;;;;;4925187;29;20079;-69
2020/12/12 00:12:52;;;;;;;120.22;37.20;;;1.20;99.90;;;;;;4908008;29;20563;-69
2020/12/12 00:15:18;;;;;;;98.63;33.70;;;1.20;99.90;;;;;;4923362;29;20632;-69
2020/12/12 00:17:45;;;;;;;118.72;36.80;;;1.20;99.90;;;;;;4925199;29;20051;-69
2020/12/12 00:20:11;;;;;;;118.90;39.15;;;1.30;99.90;;;;;;4908215;29;20449;-69
2020/12/12 00:22:37;;;;;;;131.32;39.05;;;1.20;99.90;;;;;;4924933;29;20091;-69
2020/12/12 00:25:04;;;;;;;113.05;35.63;;;1.30;99.90;;;;;;4924827;29;20051;-69
2020/12/12 00:27:29;;;;;;;118.55;36.60;;;1.30;99.90;;;;;;4925018;29;20064;-69
2020/12/12 00:29:55;;;;;;;113.60;36.15;;;1.20;99.90;;;;;;4924760;29;20440;-69
2020/12/12 00:32:21;;;;;;;111.32;36.92;;;1.20;99.90;;;;;;4907551;29;20058;-69
2020/12/12 00:34:46;;;;;;;128.38;38.63;;;1.20;99.90;;;;;;4925041;29;20027;-69
2020/12/12 00:37:13;;;;;;;122.50;38.28;;;1.20;99.90;;;;;;4924161;29;20051;-69
2020/12/12 00:39:38;;;;;;;118.63;37.05;;;1.20;99.90;;;;;;4907885;29;20040;-69
2020/12/12 00:42:06;;;;;;;120.38;37.30;;;1.20;99.90;;;;;;4924573;29;20043;-69
2020/12/12 00:44:31;;;;;;;127.60;38.20;;;1.20;99.90;;;;;;4916952;29;20399;-70
2020/12/12 00:46:58;;;;;;;132.02;40.17;;;1.20;99.90;;;;;;4907464;29;20043;-69
2020/12/12 00:49:24;;;;;;;114.20;39.10;;;1.20;99.90;;;;;;4924849;29;20032;-69
2020/12/12 00:51:49;;;;;;;122.03;37.38;;;1.20;99.90;;;;;;4924306;29;20024;-69
2020/12/12 00:54:15;;;;;;;136.00;40.17;;;1.20;99.90;;;;;;4907228;29;20030;-70
2020/12/12 00:56:41;;;;;;;122.43;37.47;;;1.20;99.90;;;;;;4922787;29;20040;-69
2020/12/12 00:59:07;;;;;;;109.80;37.78;;;1.20;99.90;;;;;;4924460;29;20493;-69
2020/12/12 01:01:33;;;;;;;123.40;37.38;;;1.20;99.90;;;;;;4924212;29;20140;-69
2020/12/12 01:03:58;;;;;;;122.95;38.15;;;1.20;99.90;;;;;;4907005;29;20575;-69
2020/12/12 01:06:24;;;;;;;128.93;39.78;;;1.20;99.90;;;;;;4922752;29;20774;-69
2020/12/12 01:08:50;;;;;;;118.93;40.10;;;1.20;99.90;;;;;;4924430;29;20032;-69
2020/12/12 01:11:18;;;;;;;128.93;39.38;;;1.20;99.90;;;;;;4906742;29;20043;-69
2020/12/12 01:13:44;;;;;;;120.55;38.55;;;1.20;99.90;;;;;;4923715;29;20075;-69
2020/12/12 01:16:15;;;;;;;130.73;39.90;;;1.20;99.90;;;;;;4923403;29;20059;-69
2020/12/12 01:18:41;;;;;;;129.05;38.75;;;1.10;99.90;;;;;;4906581;29;20744;-69
2020/12/12 01:21:08;;;;;;;125.70;39.30;;;1.10;99.90;;;;;;4905966;29;20119;-70
2020/12/12 01:23:34;;;;;;;135.90;41.88;;;1.00;99.90;;;;;;4921960;29;20096;-70
2020/12/12 01:26:00;;;;;;;132.10;40.22;;;1.00;99.90;;;;;;4922113;29;20126;-70
2020/12/12 01:28:26;;;;;;;130.80;40.15;;;0.90;99.90;;;;;;4924149;29;20082;-70
2020/12/12 01:30:53;;;;;;;140.43;41.70;;;0.90;99.90;;;;;;4924634;29;20063;-70
2020/12/12 01:33:22;;;;;;;122.63;39.35;;;0.90;99.90;;;;;;4922994;29;20086;-70
2020/12/12 01:35:49;;;;;;;128.48;39.35;;;0.90;99.90;;;;;;4924288;29;20032;-70
2020/12/12 01:38:15;;;;;;;135.85;40.70;;;0.90;99.90;;;;;;4924480;29;20039;-70
2020/12/12 01:40:41;;;;;;;131.18;39.60;;;0.80;99.90;;;;;;4924432;29;20032;-70
2020/12/12 01:43:11;;;;;;;141.43;41.95;;;0.70;99.90;;;;;;4926416;29;20035;-70
2020/12/12 01:45:40;;;;;;;140.70;42.20;;;0.70;99.90;;;;;;4924204;29;20489;-70
2020/12/12 01:48:08;;;;;;;136.70;40.50;;;0.60;99.90;;;;;;4922817;29;20031;-70
2020/12/12 01:50:37;;;;;;;133.27;39.65;;;0.60;99.90;;;;;;4923114;29;20032;-70
2020/12/12 01:53:03;;;;;;;140.43;40.17;;;0.50;99.90;;;;;;4922401;29;20140;-70
2020/12/12 01:55:30;;;;;;;151.27;41.83;;;0.40;99.90;;;;;;4916411;29;20127;-70
2020/12/12 01:57:56;;;;;;;134.82;40.72;;;0.40;99.90;;;;;;4922636;29;20038;-70
2020/12/12 02:00:23;;;;;;;129.18;42.53;;;0.40;99.90;;;;;;4923183;29;20058;-70
2020/12/12 02:02:54;;;;;;;141.13;41.38;;;0.30;99.90;;;;;;4922686;29;20032;-70
2020/12/12 02:05:38;;;;;;;151.88;41.17;;;0.30;99.90;;;;;;4905059;29;20063;-70
2020/12/12 02:08:14;;;;;;;139.80;41.35;;;0.20;99.90;;;;;;4922773;29;20072;-70
2020/12/12 02:10:42;;;;;;;138.85;43.35;;;0.20;99.90;;;;;;4906180;29;20032;-70
2020/12/12 02:13:09;;;;;;;140.38;42.65;;;0.20;99.90;;;;;;4905465;29;20659;-70
2020/12/12 02:15:37;;;;;;;146.15;40.63;;;0.20;99.90;;;;;;4923187;29;20125;-70
2020/12/12 02:18:06;;;;;;;139.98;41.45;;;0.10;99.90;;;;;;4923687;29;20043;-70
2020/12/12 02:20:32;;;;;;;149.68;42.45;;;0.10;99.90;;;;;;4923647;29;20067;-70
2020/12/12 02:22:58;;;;;;;151.57;44.38;;;0.10;99.90;;;;;;4923529;29;20051;-69
2020/12/12 02:25:23;;;;;;;150.07;43.88;;;0.00;99.90;;;;;;4923714;29;20039;-69
2020/12/12 02:27:51;;;;;;;159.15;42.92;;;0.00;99.90;;;;;;4922278;29;20035;-69
2020/12/12 02:30:18;;;;;;;150.18;41.63;;;0.10;99.90;;;;;;4923813;29;20357;-69
2020/12/12 02:32:44;;;;;;;165.60;44.80;;;0.00;99.90;;;;;;4923723;29;20031;-69
2020/12/12 02:35:10;;;;;;;151.90;42.90;;;0.10;99.90;;;;;;4921133;29;20733;-69
2020/12/12 02:37:36;;;;;;;153.02;43.17;;;0.10;99.90;;;;;;4906311;29;20451;-69
2020/12/12 02:40:05;;;;;;;148.80;43.10;;;0.10;99.90;;;;;;4923423;29;20655;-70
2020/12/12 02:42:31;;;;;;;166.38;43.72;;;0.10;99.90;;;;;;4922755;29;20054;-70
2020/12/12 02:44:56;;;;;;;149.77;42.65;;;0.10;99.90;;;;;;4922901;29;20123;-69
2020/12/12 02:47:23;;;;;;;155.25;43.38;;;0.00;99.90;;;;;;4923261;29;20035;-69
2020/12/12 02:50:11;;;;;;;163.40;45.22;;;0.00;99.90;;;;;;4905983;29;20036;-70
2020/12/12 02:52:38;;;;;;;144.10;43.75;;;0.00;99.90;;;;;;4923616;29;20754;-70
2020/12/12 02:55:08;;;;;;;158.13;43.13;;;0.00;99.90;;;;;;4923300;29;20097;-69
2020/12/12 02:57:35;;;;;;;132.98;39.80;;;0.00;99.90;;;;;;4906030;29;20118;-69
2020/12/12 03:00:10;;;;;;;150.25;42.75;;;-0.10;99.90;;;;;;4923830;29;20063;-69
2020/12/12 03:02:36;;;;;;;141.15;42.60;;;0.00;99.90;;;;;;4923311;29;20023;-69
2020/12/12 03:05:03;;;;;;;144.38;42.28;;;0.00;99.90;;;;;;4922611;29;20634;-70
2020/12/12 03:07:29;;;;;;;144.82;42.28;;;0.00;99.90;;;;;;4923594;29;20118;-70
2020/12/12 03:09:55;;;;;;;147.60;43.78;;;0.10;99.90;;;;;;4923453;29;20044;-69
2020/12/12 03:12:20;;;;;;;159.07;43.90;;;0.10;99.90;;;;;;4921844;29;20050;-70
2020/12/12 03:14:46;;;;;;;166.45;45.78;;;0.10;99.90;;;;;;4921932;29;20111;-69
2020/12/12 03:17:12;;;;;;;138.98;41.28;;;0.10;99.90;;;;;;4923076;29;20555;-69
2020/12/12 03:19:37;;;;;;;152.73;44.67;;;0.10;99.90;;;;;;4923087;29;20126;-70
2020/12/12 03:22:04;;;;;;;140.25;43.65;;;0.20;99.90;;;;;;4923419;29;20148;-70
2020/12/12 03:24:30;;;;;;;136.55;39.38;;;0.20;99.90;;;;;;4916631;29;20111;-69
2020/12/12 03:26:55;;;;;;;140.98;40.38;;;0.20;99.90;;;;;;4922443;29;20550;-69
2020/12/12 03:29:21;;;;;;;137.07;41.85;;;0.20;99.90;;;;;;4908571;29;20127;-69
2020/12/12 03:31:47;;;;;;;142.88;41.47;;;0.20;99.90;;;;;;4909431;29;20063;-69
2020/12/12 03:34:12;;;;;;;139.20;41.92;;;0.20;99.90;;;;;;4925676;29;20115;-69
2020/12/12 03:36:38;;;;;;;139.65;41.45;;;0.30;99.90;;;;;;4927177;29;20043;-70
2020/12/12 03:39:04;;;;;;;137.20;41.05;;;0.20;99.90;;;;;;4927471;29;20517;-69
2020/12/12 03:41:30;;;;;;;140.20;41.05;;;0.30;99.90;;;;;;4926262;29;20039;-70
2020/12/12 03:43:56;;;;;;;135.45;39.90;;;0.30;99.90;;;;;;4926344;29;20455;-70
2020/12/12 03:46:22;;;;;;;128.18;39.53;;;0.30;99.90;;;;;;4908253;29;20035;-69
2020/12/12 03:48:47;;;;;;;142.30;40.38;;;0.30;99.90;;;;;;4908786;29;20503;-70
2020/12/12 03:51:13;;;;;;;133.82;41.85;;;0.30;99.90;;;;;;4926081;29;20031;-69
2020/12/12 03:53:39;;;;;;;126.20;37.95;;;0.30;99.90;;;;;;4908924;29;20073;-69
2020/12/12 03:56:04;;;;;;;125.47;40.88;;;0.30;99.90;;;;;;4925081;29;20138;-69
2020/12/12 03:58:30;;;;;;;135.13;41.92;;;0.30;99.90;;;;;;4926374;29;20040;-70
2020/12/12 04:00:56;;;;;;;135.50;41.10;;;0.30;99.90;;;;;;4926163;29;20103;-70
2020/12/12 04:03:22;;;;;;;131.18;41.25;;;0.30;99.90;;;;;;4925747;29;20800;-70
2020/12/12 04:05:48;;;;;;;126.22;39.58;;;0.30;99.90;;;;;;4925594;29;20047;-70
2020/12/12 04:08:14;;;;;;;127.05;38.80;;;0.40;99.90;;;;;;4908582;29;20649;-69
2020/12/12 04:10:40;;;;;;;127.68;38.85;;;0.40;99.90;;;;;;4925452;29;20094;-70
2020/12/12 04:13:06;;;;;;;131.10;40.85;;;0.40;99.90;;;;;;4925580;29;20123;-70
2020/12/12 04:15:31;;;;;;;121.80;39.35;;;0.40;99.90;;;;;;4923751;29;20028;-70
2020/12/12 04:17:57;;;;;;;126.63;39.53;;;0.40;99.90;;;;;;4925449;29;20519;-70
2020/12/12 04:20:23;;;;;;;121.20;37.85;;;0.40;99.90;;;;;;4925726;29;21116;-70
2020/12/12 04:22:49;;;;;;;120.95;38.30;;;0.40;99.90;;;;;;4925246;29;20504;-70
2020/12/12 04:25:15;;;;;;;123.50;36.55;;;0.40;99.90;;;;;;4924510;29;20047;-70
2020/12/12 04:27:42;;;;;;;116.20;38.67;;;0.40;99.90;;;;;;4925191;29;20039;-70
2020/12/12 04:30:08;;;;;;;111.05;37.05;;;0.40;99.90;;;;;;4925129;29;20119;-70
2020/12/12 04:32:33;;;;;;;121.25;38.20;;;0.40;99.90;;;;;;4924512;29;20054;-70
2020/12/12 04:34:59;;;;;;;120.40;38.35;;;0.40;99.90;;;;;;4925172;29;20032;-70
2020/12/12 04:37:25;;;;;;;117.60;38.85;;;0.40;99.90;;;;;;4925058;29;20106;-70
2020/12/12 04:39:50;;;;;;;117.28;37.35;;;0.40;99.90;;;;;;4924515;29;20039;-69
2020/12/12 04:42:17;;;;;;;123.68;38.80;;;0.40;99.90;;;;;;4925665;29;20083;-69
2020/12/12 04:44:43;;;;;;;102.18;34.83;;;0.40;99.90;;;;;;4925463;29;20118;-69
2020/12/12 04:47:13;;;;;;;108.28;36.90;;;0.40;99.90;;;;;;4924188;29;20718;-69
2020/12/12 04:49:40;;;;;;;109.05;35.15;;;0.40;99.90;;;;;;4925430;29;20086;-70
2020/12/12 04:52:06;;;;;;;109.05;35.17;;;0.40;99.90;;;;;;4924547;29;20032;-70
2020/12/12 04:54:35;;;;;;;116.35;36.88;;;0.40;99.90;;;;;;4924585;29;20034;-69
2020/12/12 04:57:05;;;;;;;107.55;36.08;;;0.30;99.90;;;;;;4924250;29;20039;-70
2020/12/12 04:59:32;;;;;;;99.38;35.22;;;0.30;99.90;;;;;;4924721;29;20865;-70
2020/12/12 05:02:00;;;;;;;110.95;36.13;;;0.30;99.90;;;;;;4924055;29;20050;-69
2020/12/12 05:04:26;;;;;;;109.10;35.75;;;0.30;99.90;;;;;;4924369;29;20051;-69
2020/12/12 05:06:52;;;;;;;106.53;35.40;;;0.40;99.90;;;;;;4923577;29;20118;-69
2020/12/12 05:09:18;;;;;;;108.10;34.78;;;0.40;99.90;;;;;;4923814;29;20520;-69
2020/12/12 05:11:47;;;;;;;111.63;35.08;;;0.30;99.90;;;;;;4924096;29;20039;-69
2020/12/12 05:14:17;;;;;;;110.25;35.40;;;0.30;99.90;;;;;;4923812;29;20098;-70
2020/12/12 05:16:45;;;;;;;108.32;35.88;;;0.30;99.90;;;;;;4905650;29;20028;-70
2020/12/12 05:19:12;;;;;;;112.28;37.63;;;0.30;99.90;;;;;;4923725;29;20049;-69
2020/12/12 05:21:46;;;;;;;115.63;36.70;;;0.20;99.90;;;;;;4906482;29;20534;-69
2020/12/12 05:24:12;;;;;;;106.10;34.95;;;0.20;99.90;;;;;;4923022;29;20051;-70
2020/12/12 05:26:38;;;;;;;101.13;35.33;;;0.20;99.90;;;;;;4922757;29;20043;-69
2020/12/12 05:29:04;;;;;;;109.65;35.83;;;0.20;99.90;;;;;;4923676;29;20039;-70
2020/12/12 05:31:30;;;;;;;105.45;35.42;;;0.20;99.90;;;;;;4923163;29;20034;-69
2020/12/12 05:33:56;;;;;;;102.38;35.08;;;0.10;99.90;;;;;;4923502;29;20031;-70
2020/12/12 05:36:29;;;;;;;110.00;35.38;;;0.10;99.90;;;;;;4924070;29;20038;-69
2020/12/12 05:39:01;;;;;;;99.18;32.65;;;0.10;99.90;;;;;;4908447;29;20106;-69
2020/12/12 05:41:27;;;;;;;109.03;35.28;;;0.10;99.90;;;;;;4906429;29;20027;-69
2020/12/12 05:43:53;;;;;;;109.38;35.13;;;0.10;99.90;;;;;;4906333;29;20035;-69
2020/12/12 05:46:24;;;;;;;103.47;34.45;;;0.10;99.90;;;;;;4922927;29;20062;-69
2020/12/12 05:48:53;;;;;;;101.90;37.22;;;0.10;99.90;;;;;;4907439;29;20134;-69
2020/12/12 05:51:20;;;;;;;107.13;35.78;;;0.10;99.90;;;;;;4907564;29;20059;-69
2020/12/12 05:53:46;;;;;;;105.00;37.03;;;0.10;99.90;;;;;;4907483;29;20031;-69
2020/12/12 05:56:13;;;;;;;104.25;35.35;;;0.10;99.90;;;;;;4924627;29;20036;-68
2020/12/12 05:58:43;;;;;;;105.40;35.33;;;0.00;99.90;;;;;;4923188;29;20044;-67
2020/12/12 06:01:19;;;;;;;108.38;36.72;;;0.10;99.90;;;;;;4890359;29;20036;-68
2020/12/12 06:04:00;;;;;;;111.40;39.10;;;0.10;99.90;;;;;;4922364;29;20130;-68
2020/12/12 06:06:26;;;;;;;116.57;40.13;;;0.10;99.90;;;;;;4905781;29;20039;-69
2020/12/12 06:09:07;;;;;;;105.13;36.10;;;0.00;99.90;;;;;;4922453;29;20039;-67
2020/12/12 06:11:37;;;;;;;100.35;34.85;;;0.00;99.90;;;;;;4923462;29;20492;-67
2020/12/12 06:14:04;;;;;;;96.65;33.80;;;0.00;99.90;;;;;;4923038;29;20075;-67
2020/12/12 06:16:31;;;;;;;105.32;36.33;;;0.00;99.90;;;;;;4915301;29;20506;-67
2020/12/12 06:19:21;;;;;;;106.57;35.00;;;0.00;99.90;;;;;;4922594;29;20075;-68
2020/12/12 06:21:48;;;;;;;93.10;33.15;;;0.00;99.90;;;;;;4917213;29;20047;-67
2020/12/12 06:24:15;;;;;;;112.07;35.97;;;0.00;99.90;;;;;;4922438;29;20138;-67
2020/12/12 06:27:00;;;;;;;110.47;37.00;;;0.00;99.90;;;;;;4922125;29;20036;-66
2020/12/12 06:29:29;;;;;;;95.57;34.00;;;0.00;99.90;;;;;;4905791;29;20057;-67
2020/12/12 06:31:55;;;;;;;96.68;34.33;;;0.00;99.90;;;;;;4922991;29;20052;-69
2020/12/12 06:34:39;;;;;;;97.63;34.58;;;0.00;99.90;;;;;;4922441;29;20023;-68
2020/12/12 06:37:05;;;;;;;92.82;32.60;;;0.10;99.90;;;;;;4916081;29;20044;-67
2020/12/12 06:39:42;;;;;;;94.18;32.03;;;0.10;99.90;;;;;;4922453;29;20552;-68
2020/12/12 06:42:37;;;;;;;89.50;33.08;;;0.10;99.90;;;;;;4923673;29;20028;-67
2020/12/12 06:45:25;;;;;;;97.25;34.00;;;0.10;99.90;;;;;;4923337;29;20050;-67
2020/12/12 06:47:52;;;;;;;98.03;33.13;;;0.10;99.90;;;;;;4912736;29;20048;-68
2020/12/12 06:50:32;;;;;;;88.07;31.92;;;0.20;99.90;;;;;;4923812;29;20456;-67
2020/12/12 06:52:57;;;;;;;96.07;33.47;;;0.10;99.90;;;;;;4923039;29;20040;-68
2020/12/12 06:55:24;;;;;;;95.13;32.17;;;0.20;99.90;;;;;;4905805;29;20075;-68
2020/12/12 06:57:56;;;;;;;85.50;32.80;;;0.20;99.90;;;;;;4923259;29;20063;-67
2020/12/12 07:00:28;;;;;;;84.07;32.35;;;0.20;99.90;;;;;;4922315;29;20039;-68
2020/12/12 07:03:02;;;;;;;87.85;33.15;;;0.20;99.90;;;;;;4922605;29;20169;-68
2020/12/12 07:05:30;;;;;;;123.78;44.97;;;0.30;99.90;;;;;;4926423;29;20043;-67
2020/12/12 07:08:04;;;;;;;83.93;31.73;;;0.30;99.90;;;;;;4926833;29;20046;-68
2020/12/12 07:10:31;;;;;;;78.47;30.85;;;0.30;99.90;;;;;;4927359;29;20047;-69
2020/12/12 07:13:01;;;;;;;83.88;31.05;;;0.30;99.90;;;;;;4927086;29;20032;-70
2020/12/12 07:15:28;;;;;;;85.85;31.00;;;0.30;99.90;;;;;;4925677;29;20155;-68
2020/12/12 07:17:54;;;;;;;82.07;30.90;;;0.30;99.90;;;;;;4925722;29;20035;-68
2020/12/12 07:20:20;;;;;;;85.25;31.83;;;0.30;99.90;;;;;;4926832;29;20786;-67
2020/12/12 07:22:48;;;;;;;87.07;31.48;;;0.40;99.90;;;;;;4926424;29;20047;-68
2020/12/12 07:25:14;;;;;;;83.25;30.85;;;0.40;99.90;;;;;;4925895;29;20032;-67
2020/12/12 07:27:40;;;;;;;79.63;30.80;;;0.40;99.90;;;;;;4926500;29;20499;-68
2020/12/12 07:30:06;;;;;;;76.97;31.45;;;0.40;99.90;;;;;;4925794;29;20115;-68
2020/12/12 07:32:31;;;;;;;78.68;31.73;;;0.50;99.90;;;;;;4909354;29;20146;-68
2020/12/12 07:34:59;;;;;;;80.30;31.30;;;0.50;99.90;;;;;;4929602;29;20850;-68
2020/12/12 07:37:25;;;;;;;84.43;31.73;;;0.60;99.90;;;;;;4925959;29;20721;-68
2020/12/12 07:39:52;;;;;;;74.03;28.90;;;0.60;99.90;;;;;;4908798;29;20036;-68
2020/12/12 07:42:22;;;;;;;74.03;29.80;;;0.60;99.90;;;;;;4926583;29;20040;-68
2020/12/12 07:47:37;;;;;;;77.50;29.40;;;0.60;99.90;;;;;;4920706;29;20053;-68
2020/12/12 07:50:05;;;;;;;71.25;29.98;;;0.70;99.90;;;;;;4925794;29;20028;-68
2020/12/12 07:52:31;;;;;;;77.93;30.25;;;0.70;99.90;;;;;;4925925;29;20039;-68
2020/12/12 07:57:26;;;;;;;66.65;28.67;;;0.80;99.90;;;;;;4926182;29;20042;-68
2020/12/12 07:59:51;;;;;;;70.93;28.17;;;0.80;99.90;;;;;;4925134;29;20023;-68
2020/12/12 08:02:17;;;;;;;70.97;28.65;;;0.80;99.90;;;;;;4925847;29;20129;-68
2020/12/12 08:04:43;;;;;;;73.45;29.33;;;0.80;99.90;;;;;;4924811;29;20683;-69
2020/12/12 08:07:11;;;;;;;69.13;27.35;;;0.90;99.90;;;;;;4924538;29;20040;-68
2020/12/12 08:09:36;;;;;;;70.45;28.80;;;0.90;99.90;;;;;;4925689;29;20063;-68
2020/12/12 08:12:03;;;;;;;75.10;28.83;;;0.90;99.90;;;;;;4924783;29;20033;-68
2020/12/12 08:14:39;;;;;;;66.97;28.50;;;0.90;99.90;;;;;;4918506;29;20031;-68
2020/12/12 08:17:09;;;;;;;69.85;29.10;;;1.00;99.90;;;;;;4923891;29;20043;-68
2020/12/12 08:19:35;;;;;;;70.82;29.23;;;1.00;99.90;;;;;;4925483;29;20117;-68
2020/12/12 08:22:21;;;;;;;71.32;29.65;;;1.10;99.90;;;;;;4924760;29;20419;-68
2020/12/12 08:24:48;;;;;;;63.97;27.92;;;1.10;99.90;;;;;;4904106;29;20051;-68
2020/12/12 08:27:16;;;;;;;68.38;28.92;;;1.20;99.90;;;;;;4924572;29;20035;-68
2020/12/12 08:29:53;;;;;;;66.50;27.45;;;1.20;99.90;;;;;;4924689;29;20058;-68
2020/12/12 08:32:30;;;;;;;69.22;28.20;;;1.20;99.90;;;;;;4931390;29;20075;-68
2020/12/12 08:35:18;;;;;;;62.50;26.63;;;1.20;99.90;;;;;;4924856;29;20512;-68
2020/12/12 08:37:57;;;;;;;70.65;29.55;;;1.20;99.90;;;;;;4920007;29;20042;-68
2020/12/12 08:40:25;;;;;;;64.32;27.83;;;1.30;99.90;;;;;;4924544;29;20056;-68
2020/12/12 08:42:56;;;;;;;70.60;30.35;;;1.30;99.90;;;;;;4924815;29;20051;-68
2020/12/12 08:45:22;;;;;;;71.28;29.70;;;1.30;99.90;;;;;;4923280;29;20046;-68
2020/12/12 08:48:03;;;;;;;68.75;28.60;;;1.20;99.90;;;;;;4924482;29;20055;-68
2020/12/12 08:50:43;;;;;;;67.15;28.92;;;1.20;99.90;;;;;;4925097;29;20031;-67
2020/12/12 08:53:38;;;;;;;73.53;30.02;;;1.20;99.90;;;;;;4924309;29;20447;-68
2020/12/12 08:56:11;;;;;;;50.75;20.60;;;1.20;99.90;;;;;;4922428;29;20128;-68
2020/12/12 08:58:40;;;;;;;72.18;29.83;;;1.30;99.90;;;;;;4924837;29;20263;-68
2020/12/12 09:01:28;;;;;;;73.38;32.42;;;1.40;99.90;;;;;;4907174;29;20059;-68
2020/12/12 09:04:01;;;;;;;73.85;29.58;;;1.40;99.90;;;;;;4907269;29;20042;-68
2020/12/12 09:06:33;;;;;;;76.55;31.17;;;1.40;99.90;;;;;;4923463;29;20043;-68
2020/12/12 09:09:09;;;;;;;81.43;33.83;;;1.50;99.90;;;;;;4906861;29;20032;-68
2020/12/12 09:11:35;;;;;;;74.50;31.63;;;1.50;99.90;;;;;;4917930;29;20031;-68
2020/12/12 09:14:02;;;;;;;73.75;30.58;;;1.70;99.90;;;;;;4923321;29;20031;-68
2020/12/12 09:16:29;;;;;;;76.85;30.52;;;1.70;99.90;;;;;;4922766;29;20046;-68
2020/12/12 09:18:54;;;;;;;75.38;31.35;;;1.70;99.90;;;;;;4923407;29;20090;-68
2020/12/12 09:21:20;;;;;;;74.97;30.80;;;1.70;99.90;;;;;;4921671;29;20158;-68
2020/12/12 09:23:46;;;;;;;74.65;32.50;;;1.70;99.90;;;;;;4923406;29;20043;-68
2020/12/12 09:26:12;;;;;;;77.22;33.03;;;1.70;99.90;;;;;;4927248;28;20039;-68
2020/12/12 09:28:38;;;;;;;68.75;31.20;;;1.70;99.90;;;;;;4905722;29;20159;-68
2020/12/12 09:31:05;;;;;;;71.38;32.20;;;1.80;99.90;;;;;;4923480;29;20059;-68
2020/12/12 09:33:31;;;;;;;74.57;32.28;;;1.80;99.90;;;;;;4923045;29;20492;-68
2020/12/12 09:35:57;;;;;;;82.18;32.33;;;1.80;99.90;;;;;;4922017;29;20934;-68
2020/12/12 09:38:23;;;;;;;76.32;32.28;;;1.90;99.90;;;;;;4923182;29;20135;-68
2020/12/12 09:40:52;;;;;;;81.72;33.17;;;1.90;99.90;;;;;;4923577;29;20087;-68
2020/12/12 09:43:19;;;;;;;78.55;32.45;;;1.90;99.90;;;;;;4922436;29;20470;-68
2020/12/12 09:45:45;;;;;;;74.07;32.50;;;1.90;99.90;;;;;;4922091;29;20048;-68
2020/12/12 09:48:15;;;;;;;79.03;31.92;;;1.90;99.90;;;;;;4905405;29;20028;-68
2020/12/12 09:50:41;;;;;;;76.82;33.33;;;1.80;99.90;;;;;;4922470;29;20127;-68
2020/12/12 09:53:09;;;;;;;79.85;33.15;;;1.90;99.90;;;;;;4922186;29;20051;-68
2020/12/12 09:55:36;;;;;;;81.80;33.60;;;2.00;99.90;;;;;;4904982;29;20039;-70
2020/12/12 09:58:06;;;;;;;85.57;36.75;;;1.90;99.90;;;;;;4922181;29;20755;-68
2020/12/12 10:00:33;;;;;;;97.68;38.03;;;1.90;99.90;;;;;;4905678;29;20039;-68
2020/12/12 10:02:59;;;;;;;87.00;35.78;;;1.80;99.90;;;;;;4922458;29;20769;-68
2020/12/12 10:05:26;;;;;;;79.95;35.03;;;1.90;99.90;;;;;;4921165;29;20042;-68
2020/12/12 10:07:56;;;;;;;86.25;35.35;;;1.80;99.90;;;;;;4922628;29;20122;-68
2020/12/12 10:10:23;;;;;;;88.10;37.20;;;1.80;99.90;;;;;;4905415;29;20810;-68
2020/12/12 10:12:49;;;;;;;87.85;38.03;;;1.70;99.90;;;;;;4922075;29;20119;-68
2020/12/12 10:15:19;;;;;;;88.57;36.38;;;1.70;99.90;;;;;;4922317;29;20020;-68
2020/12/12 10:17:48;;;;;;;84.88;36.58;;;1.70;99.90;;;;;;4923118;29;20039;-68
2020/12/12 10:20:14;;;;;;;89.60;37.38;;;1.70;99.90;;;;;;4906421;29;20591;-68
2020/12/12 10:22:39;;;;;;;89.35;38.47;;;1.70;99.90;;;;;;4924339;29;20067;-68
2020/12/12 10:25:06;;;;;;;92.38;39.00;;;1.80;99.90;;;;;;4923043;29;20066;-68
2020/12/12 10:27:32;;;;;;;98.20;39.13;;;1.80;99.90;;;;;;4923211;29;20122;-68
2020/12/12 10:29:57;;;;;;;86.53;35.85;;;1.80;99.90;;;;;;4905996;29;20040;-68
2020/12/12 10:32:23;;;;;;;84.50;36.65;;;1.90;99.90;;;;;;4923013;29;20050;-68
2020/12/12 10:34:49;;;;;;;86.53;38.33;;;2.10;99.90;;;;;;4922155;29;20035;-68
2020/12/12 10:37:15;;;;;;;86.13;37.45;;;2.00;99.90;;;;;;4923181;29;20098;-69
2020/12/12 10:39:49;;;;;;;93.30;37.85;;;2.10;99.90;;;;;;4908972;29;20032;-68
2020/12/12 10:42:15;;;;;;;88.38;36.80;;;2.10;99.90;;;;;;4925726;29;20123;-68
2020/12/12 10:44:40;;;;;;;90.07;37.50;;;2.10;99.90;;;;;;4926241;29;20039;-69
2020/12/12 10:47:06;;;;;;;87.53;37.72;;;2.10;99.90;;;;;;4923710;29;20036;-69
2020/12/12 10:49:31;;;;;;;85.60;36.15;;;2.30;99.90;;;;;;4925231;29;20024;-68
2020/12/12 10:51:57;;;;;;;86.45;36.45;;;2.30;99.90;;;;;;4926015;29;20633;-68
2020/12/12 10:54:26;;;;;;;89.45;37.40;;;2.30;99.90;;;;;;4925617;29;20039;-71
2020/12/12 10:56:52;;;;;;;87.18;35.20;;;2.40;99.90;;;;;;4924470;29;20039;-69
2020/12/12 10:59:18;;;;;;;94.82;37.50;;;2.60;99.90;;;;;;4925731;29;20031;-69
2020/12/12 11:01:44;;;;;;;80.78;33.83;;;2.70;99.90;;;;;;4926454;29;20040;-69
2020/12/12 11:04:09;;;;;;;83.53;35.08;;;2.90;99.90;;;;;;4926489;29;20031;-70
2020/12/12 11:06:35;;;;;;;79.78;33.65;;;2.80;99.90;;;;;;4925438;29;20062;-69
2020/12/12 11:09:02;;;;;;;80.82;33.22;;;2.90;99.90;;;;;;4924988;29;20042;-70
2020/12/12 11:11:28;;;;;;;75.40;33.67;;;2.90;99.90;;;;;;4926616;29;20087;-69
2020/12/12 11:13:54;;;;;;;73.93;32.47;;;3.00;99.90;;;;;;4909265;29;20031;-69
2020/12/12 11:16:23;;;;;;;76.18;32.83;;;3.20;99.90;;;;;;4925258;29;20144;-69
2020/12/12 11:18:51;;;;;;;76.93;32.70;;;3.20;99.90;;;;;;4909256;29;20537;-69
2020/12/12 11:21:21;;;;;;;85.55;34.03;;;3.10;99.90;;;;;;4926609;29;20495;-69
2020/12/12 11:23:46;;;;;;;75.55;32.42;;;3.00;99.90;;;;;;4926551;29;20028;-69
2020/12/12 11:26:13;;;;;;;85.32;33.50;;;3.00;99.90;;;;;;4929113;29;20376;-69
2020/12/12 11:28:41;;;;;;;71.88;31.65;;;2.90;99.90;;;;;;4926135;29;20031;-70
2020/12/12 11:31:07;;;;;;;80.88;33.53;;;2.70;99.90;;;;;;4926254;29;20045;-70
2020/12/12 11:33:35;;;;;;;86.50;35.97;;;2.70;99.90;;;;;;4926265;29;20028;-72
2020/12/12 11:46:26;;;;;;;83.90;34.40;;;2.50;99.90;;;;;;4924755;29;20401;-70
2020/12/12 11:48:53;;;;;;;88.07;34.90;;;2.40;99.90;;;;;;4923167;29;20055;-70
2020/12/12 11:51:19;;;;;;;85.65;35.63;;;2.40;99.90;;;;;;4908606;29;20122;-72
2020/12/12 11:53:45;;;;;;;84.18;33.72;;;2.50;99.90;;;;;;4908039;29;20806;-71
2020/12/12 11:56:11;;;;;;;84.22;36.85;;;2.50;99.90;;;;;;4924189;29;20078;-69
2020/12/12 11:58:37;;;;;;;88.05;35.63;;;2.50;99.90;;;;;;4913816;29;20130;-69
2020/12/12 12:01:02;;;;;;;92.78;36.28;;;2.60;99.90;;;;;;4908302;29;20044;-70
2020/12/12 12:03:28;;;;;;;84.00;35.05;;;2.60;99.90;;;;;;4923948;29;20118;-70
2020/12/12 12:05:54;;;;;;;81.97;34.55;;;2.50;99.90;;;;;;4924314;29;20035;-70
2020/12/12 12:11:28;;;;;;;86.47;35.53;;;2.50;99.90;;;;;;4904590;29;20059;-70
2020/12/12 12:13:55;;;;;;;85.75;35.17;;;2.40;99.90;;;;;;4925329;29;20032;-70
2020/12/12 12:16:20;;;;;;;89.88;37.95;;;2.30;99.90;;;;;;4923619;29;20037;-70
2020/12/12 12:18:47;;;;;;;94.55;36.88;;;2.30;99.90;;;;;;4924875;29;20105;-70
2020/12/12 12:21:13;;;;;;;94.03;38.53;;;2.30;99.90;;;;;;4925792;29;20043;-70
2020/12/12 12:23:40;;;;;;;90.05;36.22;;;2.30;99.90;;;;;;4908184;29;78080;-70
2020/12/12 12:26:05;;;;;;;95.40;37.90;;;2.30;99.90;;;;;;4924001;29;20912;-70
2020/12/12 12:28:31;;;;;;;91.78;38.15;;;2.40;99.90;;;;;;4925168;29;20036;-69
2020/12/12 12:30:57;;;;;;;95.90;38.92;;;2.40;99.90;;;;;;4925436;29;20036;-69
2020/12/12 12:33:23;;;;;;;94.97;36.70;;;2.50;99.90;;;;;;4925229;29;20704;-69
2020/12/12 12:35:49;;;;;;;93.47;36.75;;;2.40;99.90;;;;;;4924807;29;20046;-71
2020/12/12 12:38:14;;;;;;;91.70;36.90;;;2.40;99.90;;;;;;4925417;29;20604;-71
2020/12/12 12:40:40;;;;;;;93.30;39.40;;;2.50;99.90;;;;;;4925376;29;20107;-71
2020/12/12 12:43:06;;;;;;;97.63;40.85;;;2.50;99.90;;;;;;4925246;29;20103;-72
2020/12/12 12:45:32;;;;;;;95.72;39.00;;;2.40;99.90;;;;;;4924452;29;20040;-72
2020/12/12 12:47:58;;;;;;;103.53;40.55;;;2.50;99.90;;;;;;4923094;29;20039;-72
2020/12/12 12:50:33;;;;;;;102.45;40.85;;;2.50;99.90;;;;;;4925317;29;20110;-71
2020/12/12 12:53:18;;;;;;;101.22;40.85;;;2.50;99.90;;;;;;4939843;29;20051;-71